sensor_id;sensor_type;location;lat;lon;timestamp;temperature;humidity
57552;DHT22;43379;48.160;14.036;2023-02-28T00:02:08;0.90;98.80
57552;DHT22;43379;48.160;14.036;2023-02-28T00:04:33;0.90;98.80
57552;DHT22;43379;48.160;14.036;2023-02-28T00:06:59;0.90;99.00
57552;DHT22;43379;48.160;14.036;2023-02-28T00:09:25;0.90;99.10
57552;DHT22;43379;48.160;14.036;2023-02-28T00:11:50;0.90;99.00
57552;DHT22;43379;48.160;14.036;2023-02-28T00:14:16;0.90;99.10
57552;DHT22;43379;48.160;14.036;2023-02-28T00:16:42;1.00;99.10
57552;DHT22;43379;48.160;14.036;2023-02-28T00:19:08;0.90;99.20
57552;DHT22;43379;48.160;14.036;2023-02-28T00:21:34;0.80;99.20
57552;DHT22;43379;48.160;14.036;2023-02-28T00:24:00;0.80;99.20
57552;DHT22;43379;48.160;14.036;2023-02-28T00:26:26;0.90;99.20
57552;DHT22;43379;48.160;14.036;2023-02-28T00:28:52;0.80;99.30
57552;DHT22;43379;48.160;14.036;2023-02-28T00:31:18;0.80;99.40
57552;DHT22;43379;48.160;14.036;2023-02-28T00:33:44;0.80;99.30
57552;DHT22;43379;48.160;14.036;2023-02-28T00:36:11;0.80;99.40
57552;DHT22;43379;48.160;14.036;2023-02-28T00:38:37;0.80;99.50
57552;DHT22;43379;48.160;14.036;2023-02-28T00:41:03;0.80;99.50
57552;DHT22;43379;48.160;14.036;2023-02-28T00:43:36;0.80;99.60
57552;DHT22;43379;48.160;14.036;2023-02-28T00:46:03;0.80;99.60
57552;DHT22;43379;48.160;14.036;2023-02-28T00:48:29;0.80;99.60
57552;DHT22;43379;48.160;14.036;2023-02-28T00:50:55;0.80;99.60
57552;DHT22;43379;48.160;14.036;2023-02-28T00:53:20;0.60;99.70
57552;DHT22;43379;48.160;14.036;2023-02-28T00:55:48;0.60;99.90
57552;DHT22;43379;48.160;14.036;2023-02-28T00:58:13;0.60;99.90
57552;DHT22;43379;48.160;14.036;2023-02-28T01:00:39;0.70;99.90
57552;DHT22;43379;48.160;14.036;2023-02-28T01:03:05;0.70;99.90
57552;DHT22;43379;48.160;14.036;2023-02-28T01:05:30;0.60;99.90
57552;DHT22;43379;48.160;14.036;2023-02-28T01:07:56;0.60;99.90
57552;DHT22;43379;48.160;14.036;2023-02-28T01:10:21;0.60;99.90
57552;DHT22;43379;48.160;14.036;2023-02-28T01:12:47;0.70;99.90
57552;DHT22;43379;48.160;14.036;2023-02-28T01:15:13;0.80;99.90
57552;DHT22;43379;48.160;14.036;2023-02-28T01:17:38;0.70;99.90
57552;DHT22;43379;48.160;14.036;2023-02-28T01:20:04;0.60;99.90
57552;DHT22;43379;48.160;14.036;2023-02-28T01:22:30;0.60;99.90
57552;DHT22;43379;48.160;14.036;2023-02-28T01:24:55;0.50;99.90
57552;DHT22;43379;48.160;14.036;2023-02-28T01:27:21;0.50;99.90
57552;DHT22;43379;48.160;14.036;2023-02-28T01:29:47;0.60;99.90
57552;DHT22;43379;48.160;14.036;2023-02-28T01:32:13;0.60;99.90
57552;DHT22;43379;48.160;14.036;2023-02-28T01:34:38;0.50;99.90
57552;DHT22;43379;48.160;14.036;2023-02-28T01:37:04;0.50;99.90
57552;DHT22;43379;48.160;14.036;2023-02-28T01:39:30;0.50;99.90
57552;DHT22;43379;48.160;14.036;2023-02-28T01:41:56;0.50;99.90
57552;DHT22;43379;48.160;14.036;2023-02-28T01:47:28;0.50;99.90
57552;DHT22;43379;48.160;14.036;2023-02-28T01:49:54;0.50;99.90
57552;DHT22;43379;48.160;14.036;2023-02-28T01:52:21;0.50;99.90
57552;DHT22;43379;48.160;14.036;2023-02-28T01:54:51;0.50;99.90
57552;DHT22;43379;48.160;14.036;2023-02-28T01:57:20;0.40;99.90
57552;DHT22;43379;48.160;14.036;2023-02-28T01:59:54;0.30;99.90
57552;DHT22;43379;48.160;14.036;2023-02-28T02:02:24;0.40;99.90
57552;DHT22;43379;48.160;14.036;2023-02-28T02:05:14;0.30;99.90
57552;DHT22;43379;48.160;14.036;2023-02-28T02:07:42;0.20;99.90
57552;DHT22;43379;48.160;14.036;2023-02-28T02:10:23;0.20;99.90
57552;DHT22;43379;48.160;14.036;2023-02-28T02:13:14;0.30;99.90
57552;DHT22;43379;48.160;14.036;2023-02-28T02:16:11;0.30;99.90
57552;DHT22;43379;48.160;14.036;2023-02-28T02:37:38;0.20;99.90
57552;DHT22;43379;48.160;14.036;2023-02-28T02:40:46;0.20;99.90
57552;DHT22;43379;48.160;14.036;2023-02-28T02:43:20;0.20;99.90
57552;DHT22;43379;48.160;14.036;2023-02-28T02:45:58;0.20;99.90
57552;DHT22;43379;48.160;14.036;2023-02-28T02:48:28;0.20;99.90
57552;DHT22;43379;48.160;14.036;2023-02-28T02:51:01;0.10;99.90
57552;DHT22;43379;48.160;14.036;2023-02-28T02:53:34;0.10;99.90
57552;DHT22;43379;48.160;14.036;2023-02-28T02:56:03;0.20;99.90
57552;DHT22;43379;48.160;14.036;2023-02-28T02:58:34;0.10;99.90
57552;DHT22;43379;48.160;14.036;2023-02-28T03:01:02;0.10;99.90
57552;DHT22;43379;48.160;14.036;2023-02-28T03:03:29;0.00;99.90
57552;DHT22;43379;48.160;14.036;2023-02-28T03:05:57;-0.10;99.90
57552;DHT22;43379;48.160;14.036;2023-02-28T03:08:24;0.00;99.90
57552;DHT22;43379;48.160;14.036;2023-02-28T03:10:57;0.00;99.90
57552;DHT22;43379;48.160;14.036;2023-02-28T03:16:36;-0.10;99.90
57552;DHT22;43379;48.160;14.036;2023-02-28T03:22:09;0.00;99.90
57552;DHT22;43379;48.160;14.036;2023-02-28T03:27:38;0.00;99.90
57552;DHT22;43379;48.160;14.036;2023-02-28T03:32:59;0.00;99.90
57552;DHT22;43379;48.160;14.036;2023-02-28T03:35:40;0.00;99.90
57552;DHT22;43379;48.160;14.036;2023-02-28T03:38:29;0.00;99.90
57552;DHT22;43379;48.160;14.036;2023-02-28T03:41:09;0.10;99.90
57552;DHT22;43379;48.160;14.036;2023-02-28T03:43:38;0.00;99.90
57552;DHT22;43379;48.160;14.036;2023-02-28T03:46:08;0.10;99.90
57552;DHT22;43379;48.160;14.036;2023-02-28T03:48:43;0.00;99.90
57552;DHT22;43379;48.160;14.036;2023-02-28T03:51:14;-0.10;99.90
57552;DHT22;43379;48.160;14.036;2023-02-28T03:53:49;-0.10;99.90
57552;DHT22;43379;48.160;14.036;2023-02-28T03:56:22;-0.10;99.90
57552;DHT22;43379;48.160;14.036;2023-02-28T04:01:30;0.00;99.90
57552;DHT22;43379;48.160;14.036;2023-02-28T04:03:57;0.00;99.90
57552;DHT22;43379;48.160;14.036;2023-02-28T04:06:24;0.00;99.90
57552;DHT22;43379;48.160;14.036;2023-02-28T04:08:50;0.00;99.90
57552;DHT22;43379;48.160;14.036;2023-02-28T04:11:34;0.10;99.90
57552;DHT22;43379;48.160;14.036;2023-02-28T04:14:01;0.20;99.90
57552;DHT22;43379;48.160;14.036;2023-02-28T04:16:28;0.20;99.90
57552;DHT22;43379;48.160;14.036;2023-02-28T04:18:54;0.20;99.90
57552;DHT22;43379;48.160;14.036;2023-02-28T04:23:58;0.00;99.90
57552;DHT22;43379;48.160;14.036;2023-02-28T04:26:29;0.10;99.90
57552;DHT22;43379;48.160;14.036;2023-02-28T04:28:55;0.10;99.90
57552;DHT22;43379;48.160;14.036;2023-02-28T04:31:21;0.10;99.90
57552;DHT22;43379;48.160;14.036;2023-02-28T04:33:47;0.10;99.90
57552;DHT22;43379;48.160;14.036;2023-02-28T04:36:12;0.00;99.90
57552;DHT22;43379;48.160;14.036;2023-02-28T04:38:39;0.00;99.90
57552;DHT22;43379;48.160;14.036;2023-02-28T04:41:05;0.10;99.90
57552;DHT22;43379;48.160;14.036;2023-02-28T04:43:32;0.20;99.90
57552;DHT22;43379;48.160;14.036;2023-02-28T04:46:01;0.10;99.90
57552;DHT22;43379;48.160;14.036;2023-02-28T04:48:31;0.10;99.90
57552;DHT22;43379;48.160;14.036;2023-02-28T04:51:02;0.10;99.90
57552;DHT22;43379;48.160;14.036;2023-02-28T04:53:28;0.10;99.90
57552;DHT22;43379;48.160;14.036;2023-02-28T04:55:55;0.00;99.90
57552;DHT22;43379;48.160;14.036;2023-02-28T04:58:21;-0.10;99.90
57552;DHT22;43379;48.160;14.036;2023-02-28T05:00:49;-0.10;99.90
57552;DHT22;43379;48.160;14.036;2023-02-28T05:03:15;-0.10;99.90
57552;DHT22;43379;48.160;14.036;2023-02-28T05:05:41;-0.10;99.90
57552;DHT22;43379;48.160;14.036;2023-02-28T05:08:07;-0.10;99.90
57552;DHT22;43379;48.160;14.036;2023-02-28T05:10:32;-0.30;99.90
57552;DHT22;43379;48.160;14.036;2023-02-28T05:12:58;-0.30;99.90
57552;DHT22;43379;48.160;14.036;2023-02-28T05:15:24;-0.30;99.90
57552;DHT22;43379;48.160;14.036;2023-02-28T05:17:50;-0.30;99.90
57552;DHT22;43379;48.160;14.036;2023-02-28T05:20:15;-0.20;99.90
57552;DHT22;43379;48.160;14.036;2023-02-28T05:22:42;-0.20;99.90
57552;DHT22;43379;48.160;14.036;2023-02-28T05:25:15;-0.30;99.90
57552;DHT22;43379;48.160;14.036;2023-02-28T05:27:41;-0.30;99.90
57552;DHT22;43379;48.160;14.036;2023-02-28T05:30:08;-0.30;99.90
57552;DHT22;43379;48.160;14.036;2023-02-28T05:32:37;-0.30;99.90
57552;DHT22;43379;48.160;14.036;2023-02-28T05:35:03;-0.30;99.90
57552;DHT22;43379;48.160;14.036;2023-02-28T05:37:29;-0.30;99.90
57552;DHT22;43379;48.160;14.036;2023-02-28T05:39:54;-0.30;99.90
57552;DHT22;43379;48.160;14.036;2023-02-28T05:42:20;-0.30;99.90
57552;DHT22;43379;48.160;14.036;2023-02-28T05:44:46;-0.30;99.90
57552;DHT22;43379;48.160;14.036;2023-02-28T05:47:12;-0.30;99.90
57552;DHT22;43379;48.160;14.036;2023-02-28T05:49:41;-0.30;99.90
57552;DHT22;43379;48.160;14.036;2023-02-28T05:52:07;-0.30;99.90
57552;DHT22;43379;48.160;14.036;2023-02-28T05:54:32;-0.20;99.90
57552;DHT22;43379;48.160;14.036;2023-02-28T05:56:58;-0.40;99.90
57552;DHT22;43379;48.160;14.036;2023-02-28T05:59:23;-0.20;99.90
57552;DHT22;43379;48.160;14.036;2023-02-28T06:01:49;-0.20;99.90
57552;DHT22;43379;48.160;14.036;2023-02-28T06:04:17;-0.10;99.90
57552;DHT22;43379;48.160;14.036;2023-02-28T06:06:48;0.00;99.90
57552;DHT22;43379;48.160;14.036;2023-02-28T06:09:14;0.00;99.90
57552;DHT22;43379;48.160;14.036;2023-02-28T06:11:40;0.10;99.90
57552;DHT22;43379;48.160;14.036;2023-02-28T06:14:06;0.00;99.90
57552;DHT22;43379;48.160;14.036;2023-02-28T06:16:33;0.10;99.90
57552;DHT22;43379;48.160;14.036;2023-02-28T06:19:00;0.10;99.90
57552;DHT22;43379;48.160;14.036;2023-02-28T06:21:27;0.00;99.90
57552;DHT22;43379;48.160;14.036;2023-02-28T06:23:54;0.20;99.90
57552;DHT22;43379;48.160;14.036;2023-02-28T06:26:20;0.20;99.90
57552;DHT22;43379;48.160;14.036;2023-02-28T06:28:46;0.20;99.90
57552;DHT22;43379;48.160;14.036;2023-02-28T06:31:15;0.30;99.80
57552;DHT22;43379;48.160;14.036;2023-02-28T06:33:41;0.30;99.80
57552;DHT22;43379;48.160;14.036;2023-02-28T06:36:09;0.40;99.50
57552;DHT22;43379;48.160;14.036;2023-02-28T06:38:36;0.40;99.40
57552;DHT22;43379;48.160;14.036;2023-02-28T06:41:02;0.40;99.40
57552;DHT22;43379;48.160;14.036;2023-02-28T06:43:31;0.40;99.20
57552;DHT22;43379;48.160;14.036;2023-02-28T06:45:58;0.40;99.10
57552;DHT22;43379;48.160;14.036;2023-02-28T06:48:26;0.50;99.30
57552;DHT22;43379;48.160;14.036;2023-02-28T06:51:00;0.60;99.10
57552;DHT22;43379;48.160;14.036;2023-02-28T06:53:26;0.60;98.80
57552;DHT22;43379;48.160;14.036;2023-02-28T06:55:52;0.50;98.80
57552;DHT22;43379;48.160;14.036;2023-02-28T06:58:17;0.40;98.80
57552;DHT22;43379;48.160;14.036;2023-02-28T07:00:45;0.50;98.80
57552;DHT22;43379;48.160;14.036;2023-02-28T07:03:12;0.50;98.90
57552;DHT22;43379;48.160;14.036;2023-02-28T07:05:39;0.50;98.90
57552;DHT22;43379;48.160;14.036;2023-02-28T07:08:05;0.70;99.00
57552;DHT22;43379;48.160;14.036;2023-02-28T07:10:32;1.60;99.90
57552;DHT22;43379;48.160;14.036;2023-02-28T07:12:59;2.80;98.30
57552;DHT22;43379;48.160;14.036;2023-02-28T07:15:24;3.70;95.20
57552;DHT22;43379;48.160;14.036;2023-02-28T07:17:50;4.80;93.80
57552;DHT22;43379;48.160;14.036;2023-02-28T07:20:16;5.40;92.00
57552;DHT22;43379;48.160;14.036;2023-02-28T07:22:42;7.00;95.20
57552;DHT22;43379;48.160;14.036;2023-02-28T07:25:08;7.50;92.50
57552;DHT22;43379;48.160;14.036;2023-02-28T07:27:34;8.90;90.00
57552;DHT22;43379;48.160;14.036;2023-02-28T07:30:00;10.10;88.60
57552;DHT22;43379;48.160;14.036;2023-02-28T07:32:29;11.20;81.10
57552;DHT22;43379;48.160;14.036;2023-02-28T07:34:54;11.50;73.30
57552;DHT22;43379;48.160;14.036;2023-02-28T07:37:20;11.50;71.30
57552;DHT22;43379;48.160;14.036;2023-02-28T07:39:46;11.60;64.90
57552;DHT22;43379;48.160;14.036;2023-02-28T07:42:11;11.50;65.10
57552;DHT22;43379;48.160;14.036;2023-02-28T07:44:41;11.40;66.10
57552;DHT22;43379;48.160;14.036;2023-02-28T07:47:11;11.40;65.10
57552;DHT22;43379;48.160;14.036;2023-02-28T07:49:37;11.70;63.60
57552;DHT22;43379;48.160;14.036;2023-02-28T07:52:04;12.30;66.00
57552;DHT22;43379;48.160;14.036;2023-02-28T07:54:30;12.70;62.30
57552;DHT22;43379;48.160;14.036;2023-02-28T07:56:56;13.00;58.50
57552;DHT22;43379;48.160;14.036;2023-02-28T07:59:21;13.30;58.90
57552;DHT22;43379;48.160;14.036;2023-02-28T08:01:47;14.20;59.70
57552;DHT22;43379;48.160;14.036;2023-02-28T08:04:18;15.30;59.60
57552;DHT22;43379;48.160;14.036;2023-02-28T08:06:44;15.40;55.40
57552;DHT22;43379;48.160;14.036;2023-02-28T08:09:09;14.20;54.60
57552;DHT22;43379;48.160;14.036;2023-02-28T08:11:35;13.20;54.70
57552;DHT22;43379;48.160;14.036;2023-02-28T08:14:01;13.80;57.70
57552;DHT22;43379;48.160;14.036;2023-02-28T08:16:27;14.50;55.60
57552;DHT22;43379;48.160;14.036;2023-02-28T08:18:53;15.10;55.70
57552;DHT22;43379;48.160;14.036;2023-02-28T08:21:20;14.70;52.10
57552;DHT22;43379;48.160;14.036;2023-02-28T08:23:47;14.50;53.90
57552;DHT22;43379;48.160;14.036;2023-02-28T08:26:14;15.60;55.60
57552;DHT22;43379;48.160;14.036;2023-02-28T08:28:39;15.70;51.90
57552;DHT22;43379;48.160;14.036;2023-02-28T08:31:14;14.60;51.30
57552;DHT22;43379;48.160;14.036;2023-02-28T08:33:41;16.00;54.30
57552;DHT22;43379;48.160;14.036;2023-02-28T08:36:08;16.40;51.10
57552;DHT22;43379;48.160;14.036;2023-02-28T08:38:35;15.80;51.80
57552;DHT22;43379;48.160;14.036;2023-02-28T08:41:02;15.60;50.10
57552;DHT22;43379;48.160;14.036;2023-02-28T08:43:29;15.00;52.00
57552;DHT22;43379;48.160;14.036;2023-02-28T08:45:55;15.70;50.50
57552;DHT22;43379;48.160;14.036;2023-02-28T08:48:23;15.40;51.90
57552;DHT22;43379;48.160;14.036;2023-02-28T08:51:10;15.50;52.00
57552;DHT22;43379;48.160;14.036;2023-02-28T08:53:37;16.10;49.20
57552;DHT22;43379;48.160;14.036;2023-02-28T08:56:07;16.10;51.00
57552;DHT22;43379;48.160;14.036;2023-02-28T08:58:34;15.80;48.40
57552;DHT22;43379;48.160;14.036;2023-02-28T09:01:00;16.00;51.30
57552;DHT22;43379;48.160;14.036;2023-02-28T09:03:26;15.80;47.90
57552;DHT22;43379;48.160;14.036;2023-02-28T09:06:01;15.30;49.10
57552;DHT22;43379;48.160;14.036;2023-02-28T09:08:29;15.10;50.60
57552;DHT22;43379;48.160;14.036;2023-02-28T09:10:55;14.10;49.80
57552;DHT22;43379;48.160;14.036;2023-02-28T09:13:24;12.80;50.40
57552;DHT22;43379;48.160;14.036;2023-02-28T09:15:49;12.60;52.10
57552;DHT22;43379;48.160;14.036;2023-02-28T09:18:15;13.00;51.60
57552;DHT22;43379;48.160;14.036;2023-02-28T09:20:41;12.80;52.50
57552;DHT22;43379;48.160;14.036;2023-02-28T09:23:08;13.80;52.00
57552;DHT22;43379;48.160;14.036;2023-02-28T09:25:34;14.80;51.30
57552;DHT22;43379;48.160;14.036;2023-02-28T09:28:00;15.20;49.70
57552;DHT22;43379;48.160;14.036;2023-02-28T09:30:26;15.30;49.50
57552;DHT22;43379;48.160;14.036;2023-02-28T09:32:52;14.40;49.60
57552;DHT22;43379;48.160;14.036;2023-02-28T09:35:20;15.20;50.10
57552;DHT22;43379;48.160;14.036;2023-02-28T09:37:47;15.30;49.30
57552;DHT22;43379;48.160;14.036;2023-02-28T09:40:14;14.60;48.70
57552;DHT22;43379;48.160;14.036;2023-02-28T09:42:45;14.10;48.80
57552;DHT22;43379;48.160;14.036;2023-02-28T09:45:33;14.40;49.80
57552;DHT22;43379;48.160;14.036;2023-02-28T09:48:04;15.20;49.60
57552;DHT22;43379;48.160;14.036;2023-02-28T09:50:55;15.30;48.60
57552;DHT22;43379;48.160;14.036;2023-02-28T09:53:31;15.70;48.50
57552;DHT22;43379;48.160;14.036;2023-02-28T09:56:09;16.40;50.30
57552;DHT22;43379;48.160;14.036;2023-02-28T09:58:56;14.50;48.20
57552;DHT22;43379;48.160;14.036;2023-02-28T10:06:51;14.40;49.50
57552;DHT22;43379;48.160;14.036;2023-02-28T10:09:24;15.20;51.70
57552;DHT22;43379;48.160;14.036;2023-02-28T10:11:52;14.90;50.00
57552;DHT22;43379;48.160;14.036;2023-02-28T10:14:22;15.40;48.50
57552;DHT22;43379;48.160;14.036;2023-02-28T10:19:30;14.40;49.50
57552;DHT22;43379;48.160;14.036;2023-02-28T10:24:45;13.10;51.60
57552;DHT22;43379;48.160;14.036;2023-02-28T10:27:21;13.20;52.00
57552;DHT22;43379;48.160;14.036;2023-02-28T10:29:55;12.30;52.90
57552;DHT22;43379;48.160;14.036;2023-02-28T10:32:24;11.60;53.40
57552;DHT22;43379;48.160;14.036;2023-02-28T10:35:16;10.60;53.80
57552;DHT22;43379;48.160;14.036;2023-02-28T10:37:44;9.90;56.90
57552;DHT22;43379;48.160;14.036;2023-02-28T10:46:03;9.40;60.40
57552;DHT22;43379;48.160;14.036;2023-02-28T10:48:42;9.30;60.00
57552;DHT22;43379;48.160;14.036;2023-02-28T10:51:12;8.80;60.00
57552;DHT22;43379;48.160;14.036;2023-02-28T10:53:47;8.20;60.70
57552;DHT22;43379;48.160;14.036;2023-02-28T10:56:21;8.10;62.60
57552;DHT22;43379;48.160;14.036;2023-02-28T11:01:47;7.60;63.90
57552;DHT22;43379;48.160;14.036;2023-02-28T11:06:45;7.70;64.30
57552;DHT22;43379;48.160;14.036;2023-02-28T11:09:40;7.40;64.80
57552;DHT22;43379;48.160;14.036;2023-02-28T11:12:19;7.60;65.20
57552;DHT22;43379;48.160;14.036;2023-02-28T11:14:59;7.70;65.00
57552;DHT22;43379;48.160;14.036;2023-02-28T11:17:30;7.40;63.80
57552;DHT22;43379;48.160;14.036;2023-02-28T11:20:05;7.10;64.70
57552;DHT22;43379;48.160;14.036;2023-02-28T11:22:38;7.00;65.50
57552;DHT22;43379;48.160;14.036;2023-02-28T11:25:16;7.00;66.30
57552;DHT22;43379;48.160;14.036;2023-02-28T11:27:58;7.40;67.20
57552;DHT22;43379;48.160;14.036;2023-02-28T11:30:31;7.30;65.70
57552;DHT22;43379;48.160;14.036;2023-02-28T11:32:57;7.40;67.10
57552;DHT22;43379;48.160;14.036;2023-02-28T11:35:31;7.60;67.10
57552;DHT22;43379;48.160;14.036;2023-02-28T11:38:00;7.60;67.10
57552;DHT22;43379;48.160;14.036;2023-02-28T11:46:38;7.20;67.80
57552;DHT22;43379;48.160;14.036;2023-02-28T12:01:09;7.30;68.40
57552;DHT22;43379;48.160;14.036;2023-02-28T12:22:09;7.40;69.20
57552;DHT22;43379;48.160;14.036;2023-02-28T12:24:58;7.20;67.40
57552;DHT22;43379;48.160;14.036;2023-02-28T12:27:29;6.80;68.10
57552;DHT22;43379;48.160;14.036;2023-02-28T12:33:14;7.00;70.50
57552;DHT22;43379;48.160;14.036;2023-02-28T12:35:54;7.10;69.20
57552;DHT22;43379;48.160;14.036;2023-02-28T12:38:41;7.20;69.40
57552;DHT22;43379;48.160;14.036;2023-02-28T12:41:23;7.20;70.10
57552;DHT22;43379;48.160;14.036;2023-02-28T12:44:03;7.30;70.40
57552;DHT22;43379;48.160;14.036;2023-02-28T12:46:38;7.30;71.00
57552;DHT22;43379;48.160;14.036;2023-02-28T12:51:41;7.10;71.20
57552;DHT22;43379;48.160;14.036;2023-02-28T12:59:16;6.90;72.50
57552;DHT22;43379;48.160;14.036;2023-02-28T13:04:42;6.70;73.90
57552;DHT22;43379;48.160;14.036;2023-02-28T13:10:12;6.90;74.40
57552;DHT22;43379;48.160;14.036;2023-02-28T13:12:51;6.90;74.70
57552;DHT22;43379;48.160;14.036;2023-02-28T13:15:27;6.90;74.30
57552;DHT22;43379;48.160;14.036;2023-02-28T13:18:00;6.80;74.60
57552;DHT22;43379;48.160;14.036;2023-02-28T13:20:33;6.80;74.60
57552;DHT22;43379;48.160;14.036;2023-02-28T13:22:59;6.90;75.00
57552;DHT22;43379;48.160;14.036;2023-02-28T13:31:14;7.00;72.40
57552;DHT22;43379;48.160;14.036;2023-02-28T13:38:49;6.90;72.20
57552;DHT22;43379;48.160;14.036;2023-02-28T13:44:17;7.00;73.90
57552;DHT22;43379;48.160;14.036;2023-02-28T13:55:14;6.90;76.50
57552;DHT22;43379;48.160;14.036;2023-02-28T14:01:06;7.00;75.80
57552;DHT22;43379;48.160;14.036;2023-02-28T14:03:44;7.10;75.10
57552;DHT22;43379;48.160;14.036;2023-02-28T14:06:18;7.00;75.00
57552;DHT22;43379;48.160;14.036;2023-02-28T14:09:02;6.80;75.40
57552;DHT22;43379;48.160;14.036;2023-02-28T14:13:57;6.90;75.40
57552;DHT22;43379;48.160;14.036;2023-02-28T14:16:34;6.90;75.40
57552;DHT22;43379;48.160;14.036;2023-02-28T14:19:22;6.70;75.40
57552;DHT22;43379;48.160;14.036;2023-02-28T14:25:08;6.70;76.80
57552;DHT22;43379;48.160;14.036;2023-02-28T14:28:02;6.80;77.40
57552;DHT22;43379;48.160;14.036;2023-02-28T14:31:06;6.90;77.00
57552;DHT22;43379;48.160;14.036;2023-02-28T14:36:35;6.90;77.20
57552;DHT22;43379;48.160;14.036;2023-02-28T14:39:06;7.10;78.00
57552;DHT22;43379;48.160;14.036;2023-02-28T14:41:35;6.90;77.90
57552;DHT22;43379;48.160;14.036;2023-02-28T14:44:24;6.90;78.10
57552;DHT22;43379;48.160;14.036;2023-02-28T14:47:00;6.90;77.10
57552;DHT22;43379;48.160;14.036;2023-02-28T14:49:35;6.90;77.00
57552;DHT22;43379;48.160;14.036;2023-02-28T14:52:06;6.80;76.80
57552;DHT22;43379;48.160;14.036;2023-02-28T14:54:36;6.70;77.70
57552;DHT22;43379;48.160;14.036;2023-02-28T14:57:03;6.80;78.10
57552;DHT22;43379;48.160;14.036;2023-02-28T14:59:34;6.90;78.50
57552;DHT22;43379;48.160;14.036;2023-02-28T15:02:22;6.90;78.30
57552;DHT22;43379;48.160;14.036;2023-02-28T15:04:56;6.70;78.50
57552;DHT22;43379;48.160;14.036;2023-02-28T15:07:22;6.70;79.20
57552;DHT22;43379;48.160;14.036;2023-02-28T15:10:19;6.60;79.50
57552;DHT22;43379;48.160;14.036;2023-02-28T15:12:51;6.60;80.00
57552;DHT22;43379;48.160;14.036;2023-02-28T15:15:18;6.50;79.70
57552;DHT22;43379;48.160;14.036;2023-02-28T15:17:50;6.50;80.30
57552;DHT22;43379;48.160;14.036;2023-02-28T15:20:18;6.20;80.70
57552;DHT22;43379;48.160;14.036;2023-02-28T15:22:46;6.20;81.10
57552;DHT22;43379;48.160;14.036;2023-02-28T15:25:18;6.20;81.50
57552;DHT22;43379;48.160;14.036;2023-02-28T15:27:47;6.20;81.90
57552;DHT22;43379;48.160;14.036;2023-02-28T15:30:26;6.20;81.90
57552;DHT22;43379;48.160;14.036;2023-02-28T15:35:37;6.20;82.20
57552;DHT22;43379;48.160;14.036;2023-02-28T15:38:23;6.20;82.40
57552;DHT22;43379;48.160;14.036;2023-02-28T15:40:54;6.30;83.00
57552;DHT22;43379;48.160;14.036;2023-02-28T15:43:32;6.20;83.30
57552;DHT22;43379;48.160;14.036;2023-02-28T15:46:09;6.30;83.40
57552;DHT22;43379;48.160;14.036;2023-02-28T15:48:53;6.30;83.30
57552;DHT22;43379;48.160;14.036;2023-02-28T15:51:40;6.30;83.80
57552;DHT22;43379;48.160;14.036;2023-02-28T15:54:08;6.20;84.50
57552;DHT22;43379;48.160;14.036;2023-02-28T15:56:39;6.10;84.80
57552;DHT22;43379;48.160;14.036;2023-02-28T15:59:14;6.00;85.30
57552;DHT22;43379;48.160;14.036;2023-02-28T16:01:40;6.10;85.60
57552;DHT22;43379;48.160;14.036;2023-02-28T16:04:17;6.00;85.90
57552;DHT22;43379;48.160;14.036;2023-02-28T16:07:03;6.00;86.30
57552;DHT22;43379;48.160;14.036;2023-02-28T16:09:30;5.90;86.10
57552;DHT22;43379;48.160;14.036;2023-02-28T16:12:00;6.00;86.20
57552;DHT22;43379;48.160;14.036;2023-02-28T16:14:30;6.00;85.50
57552;DHT22;43379;48.160;14.036;2023-02-28T16:17:19;6.00;85.50
57552;DHT22;43379;48.160;14.036;2023-02-28T16:19:45;6.00;85.90
57552;DHT22;43379;48.160;14.036;2023-02-28T16:22:11;6.10;86.30
57552;DHT22;43379;48.160;14.036;2023-02-28T16:24:37;6.10;86.50
57552;DHT22;43379;48.160;14.036;2023-02-28T16:27:04;6.10;86.70
57552;DHT22;43379;48.160;14.036;2023-02-28T16:29:34;6.00;86.90
57552;DHT22;43379;48.160;14.036;2023-02-28T16:32:00;6.00;87.00
57552;DHT22;43379;48.160;14.036;2023-02-28T16:34:26;6.00;86.00
57552;DHT22;43379;48.160;14.036;2023-02-28T16:36:53;5.70;85.80
57552;DHT22;43379;48.160;14.036;2023-02-28T16:39:19;5.80;86.20
57552;DHT22;43379;48.160;14.036;2023-02-28T16:41:48;5.70;86.20
57552;DHT22;43379;48.160;14.036;2023-02-28T16:44:32;5.60;86.40
57552;DHT22;43379;48.160;14.036;2023-02-28T16:47:03;5.70;86.60
57552;DHT22;43379;48.160;14.036;2023-02-28T16:49:29;5.70;86.30
57552;DHT22;43379;48.160;14.036;2023-02-28T16:51:55;5.60;86.80
57552;DHT22;43379;48.160;14.036;2023-02-28T16:54:21;5.60;86.80
57552;DHT22;43379;48.160;14.036;2023-02-28T16:56:48;5.50;86.90
57552;DHT22;43379;48.160;14.036;2023-02-28T16:59:17;5.50;87.40
57552;DHT22;43379;48.160;14.036;2023-02-28T17:01:43;5.50;87.50
57552;DHT22;43379;48.160;14.036;2023-02-28T17:04:11;5.40;88.00
57552;DHT22;43379;48.160;14.036;2023-02-28T17:06:37;5.50;88.30
57552;DHT22;43379;48.160;14.036;2023-02-28T17:09:03;5.40;88.10
57552;DHT22;43379;48.160;14.036;2023-02-28T17:11:29;5.40;88.60
57552;DHT22;43379;48.160;14.036;2023-02-28T17:13:54;5.30;88.70
57552;DHT22;43379;48.160;14.036;2023-02-28T17:16:32;5.30;88.90
57552;DHT22;43379;48.160;14.036;2023-02-28T17:19:01;5.30;88.90
57552;DHT22;43379;48.160;14.036;2023-02-28T17:21:28;5.20;88.70
57552;DHT22;43379;48.160;14.036;2023-02-28T17:23:53;5.20;88.80
57552;DHT22;43379;48.160;14.036;2023-02-28T17:26:20;5.30;89.00
57552;DHT22;43379;48.160;14.036;2023-02-28T17:28:50;5.20;89.10
57552;DHT22;43379;48.160;14.036;2023-02-28T17:31:17;5.20;89.90
57552;DHT22;43379;48.160;14.036;2023-02-28T17:33:43;5.20;88.70
57552;DHT22;43379;48.160;14.036;2023-02-28T17:36:35;5.10;89.10
57552;DHT22;43379;48.160;14.036;2023-02-28T17:39:03;4.90;89.40
57552;DHT22;43379;48.160;14.036;2023-02-28T17:41:29;5.00;89.60
57552;DHT22;43379;48.160;14.036;2023-02-28T17:43:58;5.00;89.50
57552;DHT22;43379;48.160;14.036;2023-02-28T17:46:25;5.00;89.50
57552;DHT22;43379;48.160;14.036;2023-02-28T17:48:51;5.10;89.40
57552;DHT22;43379;48.160;14.036;2023-02-28T17:51:20;5.00;89.90
57552;DHT22;43379;48.160;14.036;2023-02-28T17:53:46;4.90;90.20
57552;DHT22;43379;48.160;14.036;2023-02-28T17:56:21;5.00;90.30
57552;DHT22;43379;48.160;14.036;2023-02-28T17:58:49;4.90;90.30
57552;DHT22;43379;48.160;14.036;2023-02-28T18:01:15;5.00;90.20
57552;DHT22;43379;48.160;14.036;2023-02-28T18:03:41;5.10;90.10
57552;DHT22;43379;48.160;14.036;2023-02-28T18:06:08;5.10;90.00
57552;DHT22;43379;48.160;14.036;2023-02-28T18:08:38;5.10;90.20
57552;DHT22;43379;48.160;14.036;2023-02-28T18:11:04;5.10;90.30
57552;DHT22;43379;48.160;14.036;2023-02-28T18:13:30;5.10;90.50
57552;DHT22;43379;48.160;14.036;2023-02-28T18:15:55;5.10;90.50
57552;DHT22;43379;48.160;14.036;2023-02-28T18:18:21;5.10;90.50